ADDS METAR Data INFO
IDs: Format: Raw Decoded Include TAF

Data at: 1016 UTC 12 Dec 2017

KOPL 120950Z AUTO 29004KT 10SM CLR 09/05 A3013 RMK AO2 T00860049
KOPL 120920Z AUTO 29006KT 10SM CLR 09/05 A3012 RMK AO2 T00910051
KOPL 120830Z AUTO 27005KT 10SM CLR 09/06 A3011 RMK AO2 T00880056
KOPL 120815Z AUTO 26003KT 10SM CLR 08/06 A3011 RMK AO2 T00820057
KOPL 120755Z AUTO 26003KT 10SM CLR 08/06 A3010 RMK AO2 T00800061
KOPL 120740Z AUTO 26003KT 10SM CLR 08/07 A3010 RMK AO2 T00760065
KOPL 120720Z AUTO 24003KT 10SM CLR 08/06 A3011 RMK AO2 T00750063
KOPL 120650Z AUTO 00000KT 10SM CLR 08/06 A3011 RMK AO2 T00800061
KOPL 120630Z AUTO 21003KT 10SM CLR 08/06 A3011 RMK AO2 T00820062
KOPL 120615Z AUTO 22003KT 10SM CLR 09/06 A3011 RMK AO2 T00860061
KOPL 120555Z AUTO 22003KT 10SM CLR 09/06 A3011 RMK AO2 T00850060 10140 20083 402000017
KOPL 120540Z AUTO 00000KT 10SM CLR 09/06 A3011 RMK AO2 T00920063
KOPL 120450Z AUTO 23005KT 10SM CLR 10/06 A3013 RMK AO2 T01000062
KOPL 120430Z AUTO 24004KT 10SM CLR 10/06 A3014 RMK AO2 T01020062
KOPL 120415Z AUTO 23005KT 10SM CLR 10/06 A3015 RMK AO2 T01020062
KOPL 120355Z AUTO 23003KT 10SM CLR 10/07 A3014 RMK AO2 T01020065
KOPL 120340Z AUTO 25003KT 10SM CLR 10/07 A3014 RMK AO2 T01020070
KOPL 120250Z AUTO 22004KT 10SM CLR 11/08 A3015 RMK AO2 T01110082
KOPL 120230Z AUTO 21005KT 10SM CLR 11/09 A3015 RMK AO2 T01140087
KOPL 120215Z AUTO 22004KT 10SM CLR 11/09 A3015 RMK AO2 T01140088
KOPL 120140Z AUTO 22004KT 10SM CLR 12/09 A3015 RMK AO2 T01210093
KOPL 120050Z AUTO 21005KT 10SM CLR 13/09 A3014 RMK AO2 T01310090
KOPL 120030Z AUTO 21006KT 10SM CLR 14/08 A3014 RMK AO2 T01350079
KOPL 120010Z AUTO 21004KT 10SM CLR 14/06 A3014 RMK AO2 T01390059
KOPL 112350Z AUTO 21005KT 10SM CLR 15/06 A3013 RMK AO2 T01470058 10200 20147
KOPL 112335Z AUTO 20005KT 10SM CLR 15/06 A3013 RMK AO2 T01500061
KOPL 112315Z AUTO 21005KT 10SM CLR 16/07 A3013 RMK AO2 T01580065
KOPL 112300Z AUTO 21006KT 10SM CLR 17/06 A3013 RMK AO2 T01710064
KOPL 112210Z AUTO 22007KT 10SM CLR 20/06 A3014 RMK AO2 T01950061
KOPL 112150Z AUTO 24007KT 10SM CLR 20/06 A3014 RMK AO2 T01990062
KOPL 112135Z AUTO 23007KT 10SM CLR 20/05 A3015 RMK AO2 T02000049
KOPL 112115Z AUTO 22006KT 10SM CLR 20/06 A3015 RMK AO2 T01970056
KOPL 112100Z AUTO 24007KT 10SM CLR 20/05 A3016 RMK AO2 T01980047
KOPL 111955Z AUTO 20006KT 10SM CLR 19/07 A3017 RMK AO2 T01880069
KOPL 111935Z AUTO 22006KT 10SM CLR 18/07 A3018 RMK AO2 T01820065
KOPL 111920Z AUTO 23006KT 10SM CLR 18/07 A3019 RMK AO2 T01810065
KOPL 111900Z AUTO 23005KT 10SM CLR 18/06 A3020 RMK AO2 T01750057
KOPL 111830Z AUTO 25006KT 10SM CLR 17/05 A3022 RMK AO2 T01650054
KOPL 111810Z AUTO 23007KT 10SM CLR 16/05 A3023 RMK AO2 T01610047
KOPL 111755Z AUTO 26007KT 10SM CLR 16/04 A3024 RMK AO2 T01600044 10160 20035
KOPL 111735Z AUTO 26007KT 10SM CLR 16/05 A3025 RMK AO2 T01550045
KOPL 111720Z AUTO 25006KT 10SM CLR 15/05 A3026 RMK AO2 T01520045
KOPL 111700Z AUTO 25006KT 10SM CLR 15/04 A3027 RMK AO2 T01450040
KOPL 111630Z AUTO 25007KT 10SM CLR 13/04 A3029 RMK AO2 T01340042
KOPL 111600Z AUTO 25007KT 10SM CLR 13/04 A3030 RMK AO2 T01250038
KOPL 111540Z AUTO 24007KT 10SM CLR 12/04 A3030 RMK AO2 T01160043
KOPL 111520Z AUTO 25005KT 10SM CLR 10/04 A3030 RMK AO2 T01030044
KOPL 111500Z AUTO 24004KT 10SM CLR 09/04 A3030 RMK AO2 T00890044
KOPL 111440Z AUTO 25004KT 10SM CLR 08/04 A3030 RMK AO2 T00800039
KOPL 111415Z AUTO 25003KT 10SM CLR 07/04 A3030 RMK AO2 T00660040
KOPL 111355Z AUTO 24003KT 10SM CLR 06/03 A3030 RMK AO2 T00550033
KOPL 111335Z AUTO 24003KT 10SM CLR 05/03 A3030 RMK AO2 T00500030
KOPL 111315Z AUTO 22003KT 10SM CLR 04/03 A3030 RMK AO2 T00410027
KOPL 111255Z AUTO 00000KT 10SM CLR 04/03 A3030 RMK AO2 T00410025
KOPL 111235Z AUTO 00000KT 10SM CLR 04/03 A3030 RMK AO2 T00370025
KOPL 111220Z AUTO 00000KT 10SM CLR 04/02 A3030 RMK AO2 T00360024
KOPL 111200Z AUTO 00000KT 10SM CLR 04/03 A3030 RMK AO2 T00370025
KOPL 111130Z AUTO 00000KT 10SM CLR 03/03 A3030 RMK AO2 T00280026
KOPL 111110Z AUTO 00000KT 10SM CLR 02/02 A3030 RMK AO2 T00170015
KOPL 111055Z AUTO 00000KT 10SM CLR 02/02 A3029 RMK AO2 T00180015
KOPL 111035Z AUTO 00000KT 10SM CLR 04/03 A3030 RMK AO2 T00360025
KOPL 111020Z AUTO 00000KT 10SM CLR 04/03 A3030 RMK AO2 T00430028
KOPL 110930Z AUTO 00000KT 10SM CLR 05/03 A3031 RMK AO2 T00450032
KOPL 110910Z AUTO 00000KT 10SM CLR 04/03 A3032 RMK AO2 T00440034
KOPL 110830Z AUTO 24003KT 10SM CLR 03/02 A3031 RMK AO2 T00280024
KOPL 110815Z AUTO 00000KT 10SM CLR 03/02 A3031 RMK AO2 T00250020
KOPL 110755Z AUTO 00000KT 10SM CLR 04/04 A3031 RMK AO2 T00440035
KOPL 110740Z AUTO 00000KT 10SM CLR 05/04 A3031 RMK AO2 T00510036
KOPL 110650Z AUTO 22003KT 10SM CLR 04/03 A3032 RMK AO2 T00360028
KOPL 110630Z AUTO 00000KT 10SM CLR 03/02 A3032 RMK AO2 T00300023
KOPL 110615Z AUTO 00000KT 10SM CLR 05/03 A3033 RMK AO2 T00450033
KOPL 110600Z AUTO 00000KT 10SM CLR 05/04 A3033 RMK AO2 T00490035
KOPL 110540Z AUTO 00000KT 10SM CLR 05/04 A3034 RMK AO2 T00530035
KOPL 110450Z AUTO 22003KT 10SM CLR 06/03 A3034 RMK AO2 T00600030
KOPL 110435Z AUTO 22003KT 10SM CLR 06/03 A3034 RMK AO2 T00620030
KOPL 110415Z AUTO 21004KT 10SM CLR 06/03 A3034 RMK AO2 T00560027
KOPL 110400Z AUTO 21003KT 10SM CLR 05/03 A3035 RMK AO2 T00500025
KOPL 110340Z AUTO 20003KT 10SM CLR 05/02 A3035 RMK AO2 T00500022
KOPL 110310Z AUTO 22003KT 10SM CLR 07/02 A3035 RMK AO2 T00730019
KOPL 110250Z AUTO 22004KT 10SM CLR 08/01 A3035 RMK AO2 T00780012
KOPL 110240Z AUTO 22004KT 10SM CLR 07/02 A3035 RMK AO2 T00660015
KOPL 110220Z AUTO 22003KT 10SM CLR 06/02 A3035 RMK AO2 T00640017
KOPL 110130Z AUTO 00000KT 10SM CLR 06/03 A3035 RMK AO2 T00560030
KOPL 110055Z AUTO 00000KT 10SM CLR 06/04 A3035 RMK AO2 T00600038
KOPL 110035Z AUTO 00000KT 10SM CLR 07/04 A3034 RMK AO2 T00650042
KOPL 110015Z AUTO 00000KT 10SM CLR 07/04 A3033 RMK AO2 T00730039
KOPL 102355Z AUTO 00000KT 10SM CLR 08/04 A3033 RMK AO2 T00840036 10148 20080
KOPL 102335Z AUTO 00000KT 10SM CLR 09/03 A3033 RMK AO2 T00920029
KOPL 102315Z AUTO 00000KT 10SM CLR 12/02 A3033 RMK AO2 T01160017
KOPL 102255Z AUTO 00000KT 10SM CLR 12/02 A3034 RMK AO2 T01240022
KOPL 102230Z AUTO 25003KT 10SM CLR 14/02 A3034 RMK AO2 T01350016